S S S Propeller — WDC8071 — position and weather

sailwx.info

Track history (hours):
 
Tides and Currents Weather Stations Pressure Air Temp Water Temp Dewpoint Dewpoint Depression Visibility Wind Speed Wind Dir Waves Ship Positions

S S S Propeller

Owner: S.S.S. Propeller Boy Scouts of America Chief Seattle Council, Auburn, WA. More information available from US FCC via Universal Licensing System and Coast Guard Vessel Documentation Center.

Last reported at 2017-Nov-12 21:35 UTC. Time now 2017-Dec-12 20:00 UTC.
Position N 47°39' W 122°20'.
Warning: this ship's position is 29 days out of date.

Length 19 m.

Type: Passenger vessel. MMSI: 367028000.

Date/timePositionNaut miles runAvg speedWind from/ knotsBaromVisibWave heightAir tempDewpointWater temp
2017-Nov-12 21:35N 47°39' W 122°20'0 3.3
2017-Nov-12 21:30N 47°39' W 122°20'2 3.8
2017-Nov-12 20:58N 47°39' W 122°23'0 0.0
2017-Nov-12 20:30N 47°39' W 122°23'1 2.6
2017-Nov-12 19:59N 47°40' W 122°24'2 4.3
2017-Nov-12 19:30N 47°39' W 122°27'4 8.5
2017-Nov-12 19:00N 47°35' W 122°29'3 6.2
2017-Nov-12 18:30N 47°36' W 122°33'3 4.9
2017-Nov-12 17:51N 47°34' W 122°37'0 0.6
2017-Nov-12 17:30N 47°34' W 122°37'0 0.3
2017-Nov-12 16:59N 47°34' W 122°37'0 0.0
2017-Nov-11 17:06N 47°34' W 122°37'1 6.0
2017-Nov-11 16:52N 47°35' W 122°36'1 2.4
2017-Nov-11 16:30N 47°35' W 122°35'1 1.0
2017-Nov-11 15:54N 47°36' W 122°36'0 0.0
2017-Nov-11 15:27N 47°36' W 122°36'0 0.0
2017-Nov-11 14:51N 47°36' W 122°36'0 0.0
2017-Nov-11 14:30N 47°36' W 122°36'0 0.0
2017-Nov-11 14:00N 47°36' W 122°36'0 0.0
2017-Nov-11 13:24N 47°36' W 122°36'0 0.0
2017-Nov-11 12:51N 47°36' W 122°36'0 0.0
2017-Nov-11 12:27N 47°36' W 122°36'0 0.0
2017-Nov-11 11:57N 47°36' W 122°36'0 0.0
2017-Nov-11 11:18N 47°36' W 122°36'0 0.0
2017-Nov-11 11:00N 47°36' W 122°36'0 0.0
2017-Nov-11 10:27N 47°36' W 122°36'0 0.0
2017-Nov-11 09:57N 47°36' W 122°36'0 0.0
2017-Nov-11 09:30N 47°36' W 122°36'0 0.0
2017-Nov-11 09:00N 47°36' W 122°36'0 0.0
2017-Nov-11 08:27N 47°36' W 122°36'0 0.0
2017-Nov-11 07:57N 47°36' W 122°36'0 0.0
2017-Nov-11 07:30N 47°36' W 122°36'0 0.0
2017-Nov-11 07:00N 47°36' W 122°36'0 0.0
2017-Nov-11 06:30N 47°36' W 122°36'0 0.1
2017-Nov-11 05:25N 47°36' W 122°36'8 5.8
2017-Nov-11 04:05N 47°43' W 122°32'1 8.5
2017-Nov-11 04:00N 47°43' W 122°31'4 8.5
2017-Nov-11 03:30N 47°41' W 122°25'2 3.8
2017-Nov-11 03:00N 47°40' W 122°23'0 0.6
2017-Nov-11 02:30N 47°39' W 122°23'2 3.8
2017-Nov-11 01:59N 47°39' W 122°20'0 0.0
2017-Nov-11 01:29N 47°39' W 122°20'  
Track history (hours):
 
Tides and Currents Weather Stations Pressure Air Temp Water Temp Dewpoint Dewpoint Depression Visibility Wind Speed Wind Dir Waves Ship Positions

S S S Propeller

Owner: S.S.S. Propeller Boy Scouts of America Chief Seattle Council, Auburn, WA. More information available from US FCC via Universal Licensing System and Coast Guard Vessel Documentation Center.

Last reported at 2017-Nov-12 21:35 UTC. Time now 2017-Dec-12 20:00 UTC.
Position N 47°39' W 122°20'.
Warning: this ship's position is 29 days out of date.

Length 19 m.

Type: Passenger vessel. MMSI: 367028000.

Date/timePositionNaut miles runAvg speedWind from/ knotsBaromVisibWave heightAir tempDewpointWater temp
2017-Nov-12 21:35N 47°39' W 122°20'0 3.3
2017-Nov-12 21:30N 47°39' W 122°20'2 3.8
2017-Nov-12 20:58N 47°39' W 122°23'0 0.0
2017-Nov-12 20:30N 47°39' W 122°23'1 2.6
2017-Nov-12 19:59N 47°40' W 122°24'2 4.3
2017-Nov-12 19:30N 47°39' W 122°27'4 8.5
2017-Nov-12 19:00N 47°35' W 122°29'3 6.2
2017-Nov-12 18:30N 47°36' W 122°33'3 4.9
2017-Nov-12 17:51N 47°34' W 122°37'0 0.6
2017-Nov-12 17:30N 47°34' W 122°37'0 0.3
2017-Nov-12 16:59N 47°34' W 122°37'0 0.0
2017-Nov-11 17:06N 47°34' W 122°37'1 6.0
2017-Nov-11 16:52N 47°35' W 122°36'1 2.4
2017-Nov-11 16:30N 47°35' W 122°35'1 1.0
2017-Nov-11 15:54N 47°36' W 122°36'0 0.0
2017-Nov-11 15:27N 47°36' W 122°36'0 0.0
2017-Nov-11 14:51N 47°36' W 122°36'0 0.0
2017-Nov-11 14:30N 47°36' W 122°36'0 0.0
2017-Nov-11 14:00N 47°36' W 122°36'0 0.0
2017-Nov-11 13:24N 47°36' W 122°36'0 0.0
2017-Nov-11 12:51N 47°36' W 122°36'0 0.0
2017-Nov-11 12:27N 47°36' W 122°36'0 0.0
2017-Nov-11 11:57N 47°36' W 122°36'0 0.0
2017-Nov-11 11:18N 47°36' W 122°36'0 0.0
2017-Nov-11 11:00N 47°36' W 122°36'0 0.0
2017-Nov-11 10:27N 47°36' W 122°36'0 0.0
2017-Nov-11 09:57N 47°36' W 122°36'0 0.0
2017-Nov-11 09:30N 47°36' W 122°36'0 0.0
2017-Nov-11 09:00N 47°36' W 122°36'0 0.0
2017-Nov-11 08:27N 47°36' W 122°36'0 0.0
2017-Nov-11 07:57N 47°36' W 122°36'0 0.0
2017-Nov-11 07:30N 47°36' W 122°36'0 0.0
2017-Nov-11 07:00N 47°36' W 122°36'0 0.0
2017-Nov-11 06:30N 47°36' W 122°36'0 0.1
2017-Nov-11 05:25N 47°36' W 122°36'8 5.8
2017-Nov-11 04:05N 47°43' W 122°32'1 8.5
2017-Nov-11 04:00N 47°43' W 122°31'4 8.5
2017-Nov-11 03:30N 47°41' W 122°25'2 3.8
2017-Nov-11 03:00N 47°40' W 122°23'0 0.6
2017-Nov-11 02:30N 47°39' W 122°23'2 3.8
2017-Nov-11 01:59N 47°39' W 122°20'0 0.0
2017-Nov-11 01:29N 47°39' W 122°20'  

Dump ship's entire track history